sensor_id;sensor_type;location;lat;lon;timestamp;P1;durP1;ratioP1;P2;durP2;ratioP2
17806;SDS011;9027;48.938;9.182;2022-12-18T00:00:23;58.40;;;25.87;;
17806;SDS011;9027;48.938;9.182;2022-12-18T00:01:57;53.50;;;25.47;;
17806;SDS011;9027;48.938;9.182;2022-12-18T00:03:31;50.40;;;23.00;;
17806;SDS011;9027;48.938;9.182;2022-12-18T00:05:03;50.03;;;24.73;;
17806;SDS011;9027;48.938;9.182;2022-12-18T00:06:36;54.30;;;24.47;;
17806;SDS011;9027;48.938;9.182;2022-12-18T00:08:08;55.27;;;24.53;;
17806;SDS011;9027;48.938;9.182;2022-12-18T00:09:41;49.77;;;24.13;;
17806;SDS011;9027;48.938;9.182;2022-12-18T00:11:14;47.23;;;23.83;;
17806;SDS011;9027;48.938;9.182;2022-12-18T00:12:46;48.43;;;22.53;;
17806;SDS011;9027;48.938;9.182;2022-12-18T00:14:18;51.17;;;23.40;;
17806;SDS011;9027;48.938;9.182;2022-12-18T00:15:50;57.33;;;26.10;;
17806;SDS011;9027;48.938;9.182;2022-12-18T00:17:22;53.87;;;24.07;;
17806;SDS011;9027;48.938;9.182;2022-12-18T00:18:56;65.10;;;25.23;;
17806;SDS011;9027;48.938;9.182;2022-12-18T00:20:29;57.10;;;25.63;;
17806;SDS011;9027;48.938;9.182;2022-12-18T00:22:02;51.60;;;23.73;;
17806;SDS011;9027;48.938;9.182;2022-12-18T00:23:34;54.87;;;25.57;;
17806;SDS011;9027;48.938;9.182;2022-12-18T00:25:09;55.10;;;25.43;;
17806;SDS011;9027;48.938;9.182;2022-12-18T00:26:41;56.57;;;25.77;;
17806;SDS011;9027;48.938;9.182;2022-12-18T00:28:15;48.60;;;23.83;;
17806;SDS011;9027;48.938;9.182;2022-12-18T00:29:47;55.00;;;24.33;;
17806;SDS011;9027;48.938;9.182;2022-12-18T00:31:20;59.63;;;24.50;;
17806;SDS011;9027;48.938;9.182;2022-12-18T00:32:52;53.80;;;25.87;;
17806;SDS011;9027;48.938;9.182;2022-12-18T00:34:24;60.30;;;26.67;;
17806;SDS011;9027;48.938;9.182;2022-12-18T00:35:59;53.00;;;24.40;;
17806;SDS011;9027;48.938;9.182;2022-12-18T00:37:31;57.03;;;25.27;;
17806;SDS011;9027;48.938;9.182;2022-12-18T00:39:04;51.90;;;24.80;;
17806;SDS011;9027;48.938;9.182;2022-12-18T00:40:38;49.43;;;24.90;;
17806;SDS011;9027;48.938;9.182;2022-12-18T00:42:09;53.00;;;24.37;;
17806;SDS011;9027;48.938;9.182;2022-12-18T00:43:59;56.80;;;25.90;;
17806;SDS011;9027;48.938;9.182;2022-12-18T00:45:31;56.97;;;25.33;;
17806;SDS011;9027;48.938;9.182;2022-12-18T00:47:03;57.73;;;25.13;;
17806;SDS011;9027;48.938;9.182;2022-12-18T00:48:35;54.00;;;24.77;;
17806;SDS011;9027;48.938;9.182;2022-12-18T00:50:07;57.87;;;24.87;;
17806;SDS011;9027;48.938;9.182;2022-12-18T00:51:40;54.20;;;25.83;;
17806;SDS011;9027;48.938;9.182;2022-12-18T00:53:11;48.40;;;23.00;;
17806;SDS011;9027;48.938;9.182;2022-12-18T00:54:43;53.00;;;24.00;;
17806;SDS011;9027;48.938;9.182;2022-12-18T00:56:16;46.27;;;23.17;;
17806;SDS011;9027;48.938;9.182;2022-12-18T00:57:48;57.10;;;25.60;;
17806;SDS011;9027;48.938;9.182;2022-12-18T00:59:22;54.77;;;24.00;;
17806;SDS011;9027;48.938;9.182;2022-12-18T01:00:55;52.40;;;23.87;;
17806;SDS011;9027;48.938;9.182;2022-12-18T01:02:35;50.87;;;22.00;;
17806;SDS011;9027;48.938;9.182;2022-12-18T01:04:13;55.43;;;23.50;;
17806;SDS011;9027;48.938;9.182;2022-12-18T01:05:52;46.97;;;22.57;;
17806;SDS011;9027;48.938;9.182;2022-12-18T01:07:32;55.77;;;24.97;;
17806;SDS011;9027;48.938;9.182;2022-12-18T01:09:10;52.70;;;24.20;;
17806;SDS011;9027;48.938;9.182;2022-12-18T01:10:49;54.20;;;25.50;;
17806;SDS011;9027;48.938;9.182;2022-12-18T01:12:28;48.73;;;24.57;;
17806;SDS011;9027;48.938;9.182;2022-12-18T01:14:07;49.43;;;23.30;;
17806;SDS011;9027;48.938;9.182;2022-12-18T01:15:48;52.10;;;25.03;;
17806;SDS011;9027;48.938;9.182;2022-12-18T01:17:26;53.80;;;23.57;;
17806;SDS011;9027;48.938;9.182;2022-12-18T01:19:05;45.70;;;23.37;;
17806;SDS011;9027;48.938;9.182;2022-12-18T01:20:41;58.33;;;24.07;;
17806;SDS011;9027;48.938;9.182;2022-12-18T01:22:16;44.53;;;22.60;;
17806;SDS011;9027;48.938;9.182;2022-12-18T01:23:53;51.70;;;23.00;;
17806;SDS011;9027;48.938;9.182;2022-12-18T01:25:27;56.90;;;25.33;;
17806;SDS011;9027;48.938;9.182;2022-12-18T01:27:00;50.00;;;24.57;;
17806;SDS011;9027;48.938;9.182;2022-12-18T01:28:38;53.93;;;24.70;;
17806;SDS011;9027;48.938;9.182;2022-12-18T01:30:11;46.67;;;22.60;;
17806;SDS011;9027;48.938;9.182;2022-12-18T01:31:43;47.43;;;23.40;;
17806;SDS011;9027;48.938;9.182;2022-12-18T01:33:15;50.13;;;22.13;;
17806;SDS011;9027;48.938;9.182;2022-12-18T01:34:47;53.17;;;25.27;;
17806;SDS011;9027;48.938;9.182;2022-12-18T01:36:18;56.03;;;24.33;;
17806;SDS011;9027;48.938;9.182;2022-12-18T01:37:53;50.47;;;24.30;;
17806;SDS011;9027;48.938;9.182;2022-12-18T01:39:25;50.53;;;22.97;;
17806;SDS011;9027;48.938;9.182;2022-12-18T01:40:57;57.23;;;24.57;;
17806;SDS011;9027;48.938;9.182;2022-12-18T01:42:29;49.60;;;23.27;;
17806;SDS011;9027;48.938;9.182;2022-12-18T01:46:07;52.07;;;23.47;;
17806;SDS011;9027;48.938;9.182;2022-12-18T01:47:39;49.00;;;23.23;;
17806;SDS011;9027;48.938;9.182;2022-12-18T01:49:14;46.73;;;22.73;;
17806;SDS011;9027;48.938;9.182;2022-12-18T01:50:46;48.53;;;23.63;;
17806;SDS011;9027;48.938;9.182;2022-12-18T01:52:20;57.50;;;24.23;;
17806;SDS011;9027;48.938;9.182;2022-12-18T01:53:52;55.97;;;25.30;;
17806;SDS011;9027;48.938;9.182;2022-12-18T01:55:25;48.73;;;24.53;;
17806;SDS011;9027;48.938;9.182;2022-12-18T01:56:58;51.47;;;23.30;;
17806;SDS011;9027;48.938;9.182;2022-12-18T01:58:32;51.23;;;22.53;;
17806;SDS011;9027;48.938;9.182;2022-12-18T02:00:13;52.37;;;24.83;;
17806;SDS011;9027;48.938;9.182;2022-12-18T02:01:49;46.27;;;23.40;;
17806;SDS011;9027;48.938;9.182;2022-12-18T02:03:20;44.83;;;22.17;;
17806;SDS011;9027;48.938;9.182;2022-12-18T02:04:52;50.67;;;22.00;;
17806;SDS011;9027;48.938;9.182;2022-12-18T02:06:26;55.07;;;22.00;;
17806;SDS011;9027;48.938;9.182;2022-12-18T02:08:08;55.17;;;22.63;;
17806;SDS011;9027;48.938;9.182;2022-12-18T02:09:44;46.00;;;21.87;;
17806;SDS011;9027;48.938;9.182;2022-12-18T02:11:21;47.40;;;21.07;;
17806;SDS011;9027;48.938;9.182;2022-12-18T02:13:04;52.00;;;21.57;;
17806;SDS011;9027;48.938;9.182;2022-12-18T02:14:43;51.20;;;21.93;;
17806;SDS011;9027;48.938;9.182;2022-12-18T02:16:21;43.77;;;20.40;;
17806;SDS011;9027;48.938;9.182;2022-12-18T02:17:59;46.80;;;21.67;;
17806;SDS011;9027;48.938;9.182;2022-12-18T02:19:47;47.33;;;21.17;;
17806;SDS011;9027;48.938;9.182;2022-12-18T02:21:33;43.60;;;20.97;;
17806;SDS011;9027;48.938;9.182;2022-12-18T02:23:21;47.43;;;20.53;;
17806;SDS011;9027;48.938;9.182;2022-12-18T02:25:11;47.67;;;23.03;;
17806;SDS011;9027;48.938;9.182;2022-12-18T02:26:53;48.80;;;20.93;;
17806;SDS011;9027;48.938;9.182;2022-12-18T02:28:31;58.00;;;25.47;;
17806;SDS011;9027;48.938;9.182;2022-12-18T02:30:09;48.23;;;23.60;;
17806;SDS011;9027;48.938;9.182;2022-12-18T02:31:43;45.90;;;23.47;;
17806;SDS011;9027;48.938;9.182;2022-12-18T02:33:21;48.60;;;24.30;;
17806;SDS011;9027;48.938;9.182;2022-12-18T02:34:56;51.47;;;24.33;;
17806;SDS011;9027;48.938;9.182;2022-12-18T02:36:31;51.33;;;23.67;;
17806;SDS011;9027;48.938;9.182;2022-12-18T02:38:04;57.67;;;24.60;;
17806;SDS011;9027;48.938;9.182;2022-12-18T02:39:40;45.30;;;23.63;;
17806;SDS011;9027;48.938;9.182;2022-12-18T02:41:16;43.83;;;22.13;;
17806;SDS011;9027;48.938;9.182;2022-12-18T02:42:50;46.23;;;22.70;;
17806;SDS011;9027;48.938;9.182;2022-12-18T02:44:23;47.63;;;23.60;;
17806;SDS011;9027;48.938;9.182;2022-12-18T02:45:57;47.67;;;22.17;;
17806;SDS011;9027;48.938;9.182;2022-12-18T02:47:32;46.23;;;21.80;;
17806;SDS011;9027;48.938;9.182;2022-12-18T02:49:11;46.13;;;23.07;;
17806;SDS011;9027;48.938;9.182;2022-12-18T02:50:59;50.30;;;22.57;;
17806;SDS011;9027;48.938;9.182;2022-12-18T02:52:39;51.97;;;23.47;;
17806;SDS011;9027;48.938;9.182;2022-12-18T02:54:20;51.13;;;22.63;;
17806;SDS011;9027;48.938;9.182;2022-12-18T02:56:19;48.83;;;22.17;;
17806;SDS011;9027;48.938;9.182;2022-12-18T02:57:58;48.40;;;22.40;;
17806;SDS011;9027;48.938;9.182;2022-12-18T02:59:39;50.70;;;22.90;;
17806;SDS011;9027;48.938;9.182;2022-12-18T03:01:19;49.67;;;24.60;;
17806;SDS011;9027;48.938;9.182;2022-12-18T03:02:56;46.80;;;23.37;;
17806;SDS011;9027;48.938;9.182;2022-12-18T03:04:34;49.37;;;22.30;;
17806;SDS011;9027;48.938;9.182;2022-12-18T03:06:12;49.43;;;23.43;;
17806;SDS011;9027;48.938;9.182;2022-12-18T03:07:49;53.13;;;23.70;;
17806;SDS011;9027;48.938;9.182;2022-12-18T03:09:31;41.93;;;21.47;;
17806;SDS011;9027;48.938;9.182;2022-12-18T03:11:06;48.30;;;21.77;;
17806;SDS011;9027;48.938;9.182;2022-12-18T03:12:42;49.03;;;22.13;;
17806;SDS011;9027;48.938;9.182;2022-12-18T03:14:19;48.03;;;22.17;;
17806;SDS011;9027;48.938;9.182;2022-12-18T03:15:54;57.53;;;24.37;;
17806;SDS011;9027;48.938;9.182;2022-12-18T03:17:27;48.10;;;23.33;;
17806;SDS011;9027;48.938;9.182;2022-12-18T03:19:03;52.60;;;23.87;;
17806;SDS011;9027;48.938;9.182;2022-12-18T03:20:41;41.73;;;21.80;;
17806;SDS011;9027;48.938;9.182;2022-12-18T03:22:17;51.43;;;23.73;;
17806;SDS011;9027;48.938;9.182;2022-12-18T03:23:54;51.20;;;24.77;;
17806;SDS011;9027;48.938;9.182;2022-12-18T03:25:30;47.70;;;23.33;;
17806;SDS011;9027;48.938;9.182;2022-12-18T03:27:05;40.80;;;21.00;;
17806;SDS011;9027;48.938;9.182;2022-12-18T03:28:42;50.33;;;25.20;;
17806;SDS011;9027;48.938;9.182;2022-12-18T03:30:18;46.50;;;21.97;;
17806;SDS011;9027;48.938;9.182;2022-12-18T03:31:51;49.93;;;23.67;;
17806;SDS011;9027;48.938;9.182;2022-12-18T03:33:27;52.60;;;23.87;;
17806;SDS011;9027;48.938;9.182;2022-12-18T03:35:03;49.37;;;23.03;;
17806;SDS011;9027;48.938;9.182;2022-12-18T03:36:39;43.23;;;22.03;;
17806;SDS011;9027;48.938;9.182;2022-12-18T03:38:11;45.27;;;21.80;;
17806;SDS011;9027;48.938;9.182;2022-12-18T03:39:48;46.20;;;22.17;;
17806;SDS011;9027;48.938;9.182;2022-12-18T03:41:22;43.73;;;21.40;;
17806;SDS011;9027;48.938;9.182;2022-12-18T03:43:25;45.23;;;20.57;;
17806;SDS011;9027;48.938;9.182;2022-12-18T03:45:07;45.57;;;22.43;;
17806;SDS011;9027;48.938;9.182;2022-12-18T03:46:46;43.93;;;21.47;;
17806;SDS011;9027;48.938;9.182;2022-12-18T03:48:25;43.30;;;21.53;;
17806;SDS011;9027;48.938;9.182;2022-12-18T03:50:10;49.63;;;22.47;;
17806;SDS011;9027;48.938;9.182;2022-12-18T03:51:48;42.77;;;21.50;;
17806;SDS011;9027;48.938;9.182;2022-12-18T03:53:27;46.57;;;22.47;;
17806;SDS011;9027;48.938;9.182;2022-12-18T03:55:07;53.80;;;21.93;;
17806;SDS011;9027;48.938;9.182;2022-12-18T03:56:43;44.50;;;22.90;;
17806;SDS011;9027;48.938;9.182;2022-12-18T03:58:19;51.80;;;21.67;;
17806;SDS011;9027;48.938;9.182;2022-12-18T04:00:02;48.00;;;21.23;;
17806;SDS011;9027;48.938;9.182;2022-12-18T04:01:47;42.10;;;22.27;;
17806;SDS011;9027;48.938;9.182;2022-12-18T04:03:21;48.93;;;21.80;;
17806;SDS011;9027;48.938;9.182;2022-12-18T04:04:55;48.27;;;23.53;;
17806;SDS011;9027;48.938;9.182;2022-12-18T04:06:31;41.83;;;21.10;;
17806;SDS011;9027;48.938;9.182;2022-12-18T04:08:04;44.23;;;22.83;;
17806;SDS011;9027;48.938;9.182;2022-12-18T04:09:39;44.60;;;21.27;;
17806;SDS011;9027;48.938;9.182;2022-12-18T04:11:16;48.17;;;21.43;;
17806;SDS011;9027;48.938;9.182;2022-12-18T04:12:49;47.23;;;22.57;;
17806;SDS011;9027;48.938;9.182;2022-12-18T04:14:21;52.17;;;22.60;;
17806;SDS011;9027;48.938;9.182;2022-12-18T04:15:57;45.50;;;21.13;;
17806;SDS011;9027;48.938;9.182;2022-12-18T04:17:29;46.10;;;21.90;;
17806;SDS011;9027;48.938;9.182;2022-12-18T04:19:02;44.57;;;22.03;;
17806;SDS011;9027;48.938;9.182;2022-12-18T04:20:39;41.83;;;21.60;;
17806;SDS011;9027;48.938;9.182;2022-12-18T04:22:12;41.27;;;19.37;;
17806;SDS011;9027;48.938;9.182;2022-12-18T04:23:48;45.33;;;21.23;;
17806;SDS011;9027;48.938;9.182;2022-12-18T04:25:21;43.83;;;21.43;;
17806;SDS011;9027;48.938;9.182;2022-12-18T04:27:02;47.40;;;21.83;;
17806;SDS011;9027;48.938;9.182;2022-12-18T04:28:39;41.63;;;20.33;;
17806;SDS011;9027;48.938;9.182;2022-12-18T04:30:11;47.57;;;23.07;;
17806;SDS011;9027;48.938;9.182;2022-12-18T04:31:42;42.77;;;20.63;;
17806;SDS011;9027;48.938;9.182;2022-12-18T04:33:16;38.87;;;20.50;;
17806;SDS011;9027;48.938;9.182;2022-12-18T04:34:49;49.27;;;22.47;;
17806;SDS011;9027;48.938;9.182;2022-12-18T04:36:21;47.30;;;20.70;;
17806;SDS011;9027;48.938;9.182;2022-12-18T04:37:53;44.50;;;20.30;;
17806;SDS011;9027;48.938;9.182;2022-12-18T04:39:25;47.10;;;21.40;;
17806;SDS011;9027;48.938;9.182;2022-12-18T04:41:00;47.17;;;21.53;;
17806;SDS011;9027;48.938;9.182;2022-12-18T04:42:31;48.83;;;21.30;;
17806;SDS011;9027;48.938;9.182;2022-12-18T04:44:03;42.90;;;21.40;;
17806;SDS011;9027;48.938;9.182;2022-12-18T04:45:36;41.83;;;21.37;;
17806;SDS011;9027;48.938;9.182;2022-12-18T04:47:07;42.30;;;21.07;;
17806;SDS011;9027;48.938;9.182;2022-12-18T04:48:40;47.13;;;21.63;;
17806;SDS011;9027;48.938;9.182;2022-12-18T04:50:11;49.57;;;21.07;;
17806;SDS011;9027;48.938;9.182;2022-12-18T04:51:43;45.70;;;22.33;;
17806;SDS011;9027;48.938;9.182;2022-12-18T04:53:15;45.27;;;21.13;;
17806;SDS011;9027;48.938;9.182;2022-12-18T04:54:46;36.03;;;19.70;;
17806;SDS011;9027;48.938;9.182;2022-12-18T04:56:17;46.77;;;21.80;;
17806;SDS011;9027;48.938;9.182;2022-12-18T04:57:49;46.27;;;21.40;;
17806;SDS011;9027;48.938;9.182;2022-12-18T04:59:20;43.00;;;21.47;;
17806;SDS011;9027;48.938;9.182;2022-12-18T05:00:52;47.23;;;20.33;;
17806;SDS011;9027;48.938;9.182;2022-12-18T05:02:24;48.60;;;21.57;;
17806;SDS011;9027;48.938;9.182;2022-12-18T05:03:56;42.83;;;21.13;;
17806;SDS011;9027;48.938;9.182;2022-12-18T05:05:28;42.93;;;21.07;;
17806;SDS011;9027;48.938;9.182;2022-12-18T05:07:00;48.07;;;21.63;;
17806;SDS011;9027;48.938;9.182;2022-12-18T05:08:32;47.97;;;20.30;;
17806;SDS011;9027;48.938;9.182;2022-12-18T05:10:03;43.97;;;22.47;;
17806;SDS011;9027;48.938;9.182;2022-12-18T05:11:37;46.63;;;21.73;;
17806;SDS011;9027;48.938;9.182;2022-12-18T05:13:09;40.67;;;20.53;;
17806;SDS011;9027;48.938;9.182;2022-12-18T05:14:41;48.27;;;21.73;;
17806;SDS011;9027;48.938;9.182;2022-12-18T05:16:13;49.17;;;22.17;;
17806;SDS011;9027;48.938;9.182;2022-12-18T05:17:45;37.63;;;19.13;;
17806;SDS011;9027;48.938;9.182;2022-12-18T05:19:18;45.80;;;22.33;;
17806;SDS011;9027;48.938;9.182;2022-12-18T05:20:50;40.33;;;21.07;;
17806;SDS011;9027;48.938;9.182;2022-12-18T05:22:22;47.50;;;21.47;;
17806;SDS011;9027;48.938;9.182;2022-12-18T05:23:54;46.67;;;21.30;;
17806;SDS011;9027;48.938;9.182;2022-12-18T05:25:26;45.27;;;22.10;;
17806;SDS011;9027;48.938;9.182;2022-12-18T05:26:58;44.40;;;22.23;;
17806;SDS011;9027;48.938;9.182;2022-12-18T05:28:31;45.17;;;21.07;;
17806;SDS011;9027;48.938;9.182;2022-12-18T05:30:04;44.60;;;21.13;;
17806;SDS011;9027;48.938;9.182;2022-12-18T05:31:36;43.90;;;21.50;;
17806;SDS011;9027;48.938;9.182;2022-12-18T05:33:08;43.27;;;21.70;;
17806;SDS011;9027;48.938;9.182;2022-12-18T05:34:41;43.87;;;20.47;;
17806;SDS011;9027;48.938;9.182;2022-12-18T05:36:13;42.13;;;19.37;;
17806;SDS011;9027;48.938;9.182;2022-12-18T05:37:45;39.33;;;19.40;;
17806;SDS011;9027;48.938;9.182;2022-12-18T05:39:17;38.47;;;19.97;;
17806;SDS011;9027;48.938;9.182;2022-12-18T05:40:49;40.90;;;19.07;;
17806;SDS011;9027;48.938;9.182;2022-12-18T05:42:22;38.60;;;19.00;;
17806;SDS011;9027;48.938;9.182;2022-12-18T05:43:53;41.53;;;20.47;;
17806;SDS011;9027;48.938;9.182;2022-12-18T05:45:25;42.70;;;19.77;;
17806;SDS011;9027;48.938;9.182;2022-12-18T05:46:55;33.93;;;18.10;;
17806;SDS011;9027;48.938;9.182;2022-12-18T05:48:27;36.40;;;19.37;;
17806;SDS011;9027;48.938;9.182;2022-12-18T05:50:01;38.47;;;20.37;;
17806;SDS011;9027;48.938;9.182;2022-12-18T05:51:33;40.67;;;20.07;;
17806;SDS011;9027;48.938;9.182;2022-12-18T05:53:05;46.60;;;21.03;;
17806;SDS011;9027;48.938;9.182;2022-12-18T05:54:37;43.00;;;20.20;;
17806;SDS011;9027;48.938;9.182;2022-12-18T05:56:10;43.33;;;19.83;;
17806;SDS011;9027;48.938;9.182;2022-12-18T05:57:43;45.13;;;20.20;;
17806;SDS011;9027;48.938;9.182;2022-12-18T05:59:14;41.80;;;19.47;;
17806;SDS011;9027;48.938;9.182;2022-12-18T06:00:46;39.97;;;18.60;;
17806;SDS011;9027;48.938;9.182;2022-12-18T06:02:17;46.10;;;19.13;;
17806;SDS011;9027;48.938;9.182;2022-12-18T06:03:51;37.57;;;19.73;;
17806;SDS011;9027;48.938;9.182;2022-12-18T06:05:24;38.30;;;18.60;;
17806;SDS011;9027;48.938;9.182;2022-12-18T06:06:55;41.47;;;19.33;;
17806;SDS011;9027;48.938;9.182;2022-12-18T06:08:27;41.87;;;18.83;;
17806;SDS011;9027;48.938;9.182;2022-12-18T06:09:58;33.87;;;17.60;;
17806;SDS011;9027;48.938;9.182;2022-12-18T06:11:30;41.43;;;20.00;;
17806;SDS011;9027;48.938;9.182;2022-12-18T06:13:02;40.33;;;19.47;;
17806;SDS011;9027;48.938;9.182;2022-12-18T06:14:34;40.77;;;19.33;;
17806;SDS011;9027;48.938;9.182;2022-12-18T06:16:06;43.33;;;19.77;;
17806;SDS011;9027;48.938;9.182;2022-12-18T06:17:39;39.73;;;18.70;;
17806;SDS011;9027;48.938;9.182;2022-12-18T06:19:12;43.43;;;20.43;;
17806;SDS011;9027;48.938;9.182;2022-12-18T06:20:54;40.17;;;19.30;;
17806;SDS011;9027;48.938;9.182;2022-12-18T06:22:27;41.17;;;19.00;;
17806;SDS011;9027;48.938;9.182;2022-12-18T06:23:59;40.30;;;18.87;;
17806;SDS011;9027;48.938;9.182;2022-12-18T06:25:31;41.47;;;18.90;;
17806;SDS011;9027;48.938;9.182;2022-12-18T06:27:03;37.67;;;18.10;;
17806;SDS011;9027;48.938;9.182;2022-12-18T06:28:35;41.37;;;19.87;;
17806;SDS011;9027;48.938;9.182;2022-12-18T06:30:07;43.80;;;19.00;;
17806;SDS011;9027;48.938;9.182;2022-12-18T06:31:39;35.37;;;17.27;;
17806;SDS011;9027;48.938;9.182;2022-12-18T06:33:11;45.43;;;19.57;;
17806;SDS011;9027;48.938;9.182;2022-12-18T06:34:43;39.33;;;18.87;;
17806;SDS011;9027;48.938;9.182;2022-12-18T06:36:16;42.97;;;17.97;;
17806;SDS011;9027;48.938;9.182;2022-12-18T06:37:49;36.97;;;17.33;;
17806;SDS011;9027;48.938;9.182;2022-12-18T06:39:21;42.43;;;18.30;;
17806;SDS011;9027;48.938;9.182;2022-12-18T06:40:53;39.20;;;17.93;;
17806;SDS011;9027;48.938;9.182;2022-12-18T06:42:24;43.60;;;18.83;;
17806;SDS011;9027;48.938;9.182;2022-12-18T06:43:57;38.90;;;18.63;;
17806;SDS011;9027;48.938;9.182;2022-12-18T06:45:29;35.53;;;17.60;;
17806;SDS011;9027;48.938;9.182;2022-12-18T06:47:01;32.60;;;15.33;;
17806;SDS011;9027;48.938;9.182;2022-12-18T06:48:33;34.33;;;16.30;;
17806;SDS011;9027;48.938;9.182;2022-12-18T06:50:05;40.67;;;17.57;;
17806;SDS011;9027;48.938;9.182;2022-12-18T06:51:39;34.67;;;17.10;;
17806;SDS011;9027;48.938;9.182;2022-12-18T06:53:11;34.57;;;15.93;;
17806;SDS011;9027;48.938;9.182;2022-12-18T06:54:43;37.40;;;17.43;;
17806;SDS011;9027;48.938;9.182;2022-12-18T06:56:15;36.27;;;16.70;;
17806;SDS011;9027;48.938;9.182;2022-12-18T06:57:47;40.43;;;17.60;;
17806;SDS011;9027;48.938;9.182;2022-12-18T06:59:19;34.87;;;15.50;;
17806;SDS011;9027;48.938;9.182;2022-12-18T07:00:51;35.67;;;17.50;;
17806;SDS011;9027;48.938;9.182;2022-12-18T07:02:22;44.33;;;19.30;;
17806;SDS011;9027;48.938;9.182;2022-12-18T07:03:55;64.20;;;24.90;;
17806;SDS011;9027;48.938;9.182;2022-12-18T07:05:27;66.07;;;27.23;;
17806;SDS011;9027;48.938;9.182;2022-12-18T07:07:01;41.63;;;20.73;;
17806;SDS011;9027;48.938;9.182;2022-12-18T07:08:33;41.03;;;17.67;;
17806;SDS011;9027;48.938;9.182;2022-12-18T07:10:05;40.00;;;19.07;;
17806;SDS011;9027;48.938;9.182;2022-12-18T07:11:37;35.77;;;17.30;;
17806;SDS011;9027;48.938;9.182;2022-12-18T07:13:09;36.67;;;16.43;;
17806;SDS011;9027;48.938;9.182;2022-12-18T07:14:41;37.20;;;16.30;;
17806;SDS011;9027;48.938;9.182;2022-12-18T07:16:13;36.20;;;18.17;;
17806;SDS011;9027;48.938;9.182;2022-12-18T07:17:47;36.60;;;17.63;;
17806;SDS011;9027;48.938;9.182;2022-12-18T07:19:18;30.97;;;17.23;;
17806;SDS011;9027;48.938;9.182;2022-12-18T07:20:53;32.37;;;15.83;;
17806;SDS011;9027;48.938;9.182;2022-12-18T07:22:26;36.90;;;18.53;;
17806;SDS011;9027;48.938;9.182;2022-12-18T07:23:58;37.13;;;18.10;;
17806;SDS011;9027;48.938;9.182;2022-12-18T07:25:30;41.33;;;20.47;;
17806;SDS011;9027;48.938;9.182;2022-12-18T07:27:04;38.67;;;18.07;;
17806;SDS011;9027;48.938;9.182;2022-12-18T07:28:37;43.37;;;20.37;;
17806;SDS011;9027;48.938;9.182;2022-12-18T07:30:10;39.60;;;18.83;;
17806;SDS011;9027;48.938;9.182;2022-12-18T07:31:43;33.90;;;17.07;;
17806;SDS011;9027;48.938;9.182;2022-12-18T07:33:15;34.27;;;16.90;;
17806;SDS011;9027;48.938;9.182;2022-12-18T07:34:47;29.50;;;15.13;;
17806;SDS011;9027;48.938;9.182;2022-12-18T07:36:23;34.77;;;15.63;;
17806;SDS011;9027;48.938;9.182;2022-12-18T07:37:57;30.43;;;15.30;;
17806;SDS011;9027;48.938;9.182;2022-12-18T07:39:29;42.00;;;16.67;;
17806;SDS011;9027;48.938;9.182;2022-12-18T07:41:01;30.93;;;15.47;;
17806;SDS011;9027;48.938;9.182;2022-12-18T07:42:33;34.73;;;15.40;;
17806;SDS011;9027;48.938;9.182;2022-12-18T07:44:08;39.63;;;16.63;;
17806;SDS011;9027;48.938;9.182;2022-12-18T07:45:39;34.40;;;16.57;;
17806;SDS011;9027;48.938;9.182;2022-12-18T07:47:11;29.00;;;14.17;;
17806;SDS011;9027;48.938;9.182;2022-12-18T07:48:43;37.47;;;15.83;;
17806;SDS011;9027;48.938;9.182;2022-12-18T07:50:16;30.70;;;15.40;;
17806;SDS011;9027;48.938;9.182;2022-12-18T07:51:47;33.33;;;16.43;;
17806;SDS011;9027;48.938;9.182;2022-12-18T07:53:21;38.27;;;16.10;;
17806;SDS011;9027;48.938;9.182;2022-12-18T07:54:53;38.80;;;17.00;;
17806;SDS011;9027;48.938;9.182;2022-12-18T07:56:25;32.33;;;16.57;;
17806;SDS011;9027;48.938;9.182;2022-12-18T07:58:00;34.80;;;16.17;;
17806;SDS011;9027;48.938;9.182;2022-12-18T07:59:33;37.60;;;15.80;;
17806;SDS011;9027;48.938;9.182;2022-12-18T08:01:05;35.10;;;16.23;;
17806;SDS011;9027;48.938;9.182;2022-12-18T08:02:38;39.20;;;17.63;;
17806;SDS011;9027;48.938;9.182;2022-12-18T08:04:10;35.17;;;16.93;;
17806;SDS011;9027;48.938;9.182;2022-12-18T08:05:42;35.77;;;15.80;;
17806;SDS011;9027;48.938;9.182;2022-12-18T08:07:14;36.30;;;17.63;;
17806;SDS011;9027;48.938;9.182;2022-12-18T08:08:47;31.03;;;17.27;;
17806;SDS011;9027;48.938;9.182;2022-12-18T08:10:20;40.57;;;17.33;;
17806;SDS011;9027;48.938;9.182;2022-12-18T08:11:52;37.17;;;17.53;;
17806;SDS011;9027;48.938;9.182;2022-12-18T08:13:24;37.63;;;16.87;;
17806;SDS011;9027;48.938;9.182;2022-12-18T08:14:56;33.60;;;17.00;;
17806;SDS011;9027;48.938;9.182;2022-12-18T08:16:28;42.43;;;18.13;;
17806;SDS011;9027;48.938;9.182;2022-12-18T08:18:00;38.40;;;17.40;;
17806;SDS011;9027;48.938;9.182;2022-12-18T08:19:32;36.60;;;18.23;;
17806;SDS011;9027;48.938;9.182;2022-12-18T08:21:07;37.93;;;17.93;;
17806;SDS011;9027;48.938;9.182;2022-12-18T08:22:40;35.50;;;19.17;;
17806;SDS011;9027;48.938;9.182;2022-12-18T08:24:14;38.67;;;19.00;;
17806;SDS011;9027;48.938;9.182;2022-12-18T08:25:46;39.67;;;19.37;;
17806;SDS011;9027;48.938;9.182;2022-12-18T08:27:18;39.83;;;19.23;;
17806;SDS011;9027;48.938;9.182;2022-12-18T08:28:50;46.13;;;19.77;;
17806;SDS011;9027;48.938;9.182;2022-12-18T08:30:21;38.00;;;19.17;;
17806;SDS011;9027;48.938;9.182;2022-12-18T08:31:53;36.17;;;20.37;;
17806;SDS011;9027;48.938;9.182;2022-12-18T08:33:25;39.50;;;20.97;;
17806;SDS011;9027;48.938;9.182;2022-12-18T08:34:57;40.37;;;22.23;;
17806;SDS011;9027;48.938;9.182;2022-12-18T08:36:29;38.17;;;22.37;;
17806;SDS011;9027;48.938;9.182;2022-12-18T08:38:01;41.73;;;23.63;;
17806;SDS011;9027;48.938;9.182;2022-12-18T08:39:34;41.67;;;22.50;;
17806;SDS011;9027;48.938;9.182;2022-12-18T08:41:07;41.00;;;23.77;;
17806;SDS011;9027;48.938;9.182;2022-12-18T08:42:40;42.77;;;25.23;;
17806;SDS011;9027;48.938;9.182;2022-12-18T08:44:29;43.67;;;24.17;;
17806;SDS011;9027;48.938;9.182;2022-12-18T08:46:09;39.60;;;23.17;;
17806;SDS011;9027;48.938;9.182;2022-12-18T08:47:41;44.00;;;25.10;;
17806;SDS011;9027;48.938;9.182;2022-12-18T08:49:13;44.13;;;23.33;;
17806;SDS011;9027;48.938;9.182;2022-12-18T08:50:52;39.37;;;24.67;;
17806;SDS011;9027;48.938;9.182;2022-12-18T08:52:25;48.70;;;31.07;;
17806;SDS011;9027;48.938;9.182;2022-12-18T08:53:58;51.10;;;30.67;;
17806;SDS011;9027;48.938;9.182;2022-12-18T08:55:31;47.03;;;28.13;;
17806;SDS011;9027;48.938;9.182;2022-12-18T08:57:03;42.43;;;25.57;;
17806;SDS011;9027;48.938;9.182;2022-12-18T08:58:35;38.93;;;23.67;;
17806;SDS011;9027;48.938;9.182;2022-12-18T09:00:08;38.77;;;24.40;;
17806;SDS011;9027;48.938;9.182;2022-12-18T09:01:44;41.53;;;26.77;;
17806;SDS011;9027;48.938;9.182;2022-12-18T09:03:17;42.00;;;24.30;;
17806;SDS011;9027;48.938;9.182;2022-12-18T09:04:52;40.27;;;24.33;;
17806;SDS011;9027;48.938;9.182;2022-12-18T09:06:24;39.97;;;25.07;;
17806;SDS011;9027;48.938;9.182;2022-12-18T09:07:56;39.70;;;25.97;;
17806;SDS011;9027;48.938;9.182;2022-12-18T09:09:28;42.00;;;26.40;;
17806;SDS011;9027;48.938;9.182;2022-12-18T09:11:01;38.57;;;26.47;;
17806;SDS011;9027;48.938;9.182;2022-12-18T09:12:34;42.43;;;28.00;;
17806;SDS011;9027;48.938;9.182;2022-12-18T09:14:06;43.57;;;29.93;;
17806;SDS011;9027;48.938;9.182;2022-12-18T09:15:40;42.63;;;27.50;;
17806;SDS011;9027;48.938;9.182;2022-12-18T09:17:12;51.27;;;33.33;;
17806;SDS011;9027;48.938;9.182;2022-12-18T09:18:44;48.87;;;33.73;;
17806;SDS011;9027;48.938;9.182;2022-12-18T09:20:17;38.07;;;26.10;;